sensor_id;sensor_type;location;lat;lon;timestamp;temperature;humidity
72126;SHT31;59999;51.676;22.650;2023-05-10T00:01:03;5.99;65.33
72126;SHT31;59999;51.676;22.650;2023-05-10T00:03:29;5.93;65.79
72126;SHT31;59999;51.676;22.650;2023-05-10T00:05:55;5.91;65.86
72126;SHT31;59999;51.676;22.650;2023-05-10T00:08:21;5.84;65.85
72126;SHT31;59999;51.676;22.650;2023-05-10T00:10:47;5.78;65.79
72126;SHT31;59999;51.676;22.650;2023-05-10T00:13:13;5.75;65.91
72126;SHT31;59999;51.676;22.650;2023-05-10T00:15:39;5.70;65.90
72126;SHT31;59999;51.676;22.650;2023-05-10T00:18:05;5.70;65.86
72126;SHT31;59999;51.676;22.650;2023-05-10T00:20:31;5.63;66.02
72126;SHT31;59999;51.676;22.650;2023-05-10T00:22:57;5.64;66.14
72126;SHT31;59999;51.676;22.650;2023-05-10T00:25:23;5.60;65.98
72126;SHT31;59999;51.676;22.650;2023-05-10T00:27:49;5.59;66.13
72126;SHT31;59999;51.676;22.650;2023-05-10T00:30:15;5.56;66.24
72126;SHT31;59999;51.676;22.650;2023-05-10T00:32:41;5.51;66.32
72126;SHT31;59999;51.676;22.650;2023-05-10T00:35:08;5.49;66.43
72126;SHT31;59999;51.676;22.650;2023-05-10T00:37:33;5.42;66.72
72126;SHT31;59999;51.676;22.650;2023-05-10T00:40:00;5.42;66.57
72126;SHT31;59999;51.676;22.650;2023-05-10T00:42:25;5.39;66.54
72126;SHT31;59999;51.676;22.650;2023-05-10T00:44:51;5.38;66.68
72126;SHT31;59999;51.676;22.650;2023-05-10T00:47:17;5.32;66.79
72126;SHT31;59999;51.676;22.650;2023-05-10T00:49:44;5.32;66.70
72126;SHT31;59999;51.676;22.650;2023-05-10T00:52:11;5.30;66.71
72126;SHT31;59999;51.676;22.650;2023-05-10T00:54:37;5.28;66.76
72126;SHT31;59999;51.676;22.650;2023-05-10T00:57:03;5.23;66.96
72126;SHT31;59999;51.676;22.650;2023-05-10T00:59:29;5.16;67.12
72126;SHT31;59999;51.676;22.650;2023-05-10T01:01:55;5.15;67.15
72126;SHT31;59999;51.676;22.650;2023-05-10T01:04:21;5.11;67.37
72126;SHT31;59999;51.676;22.650;2023-05-10T01:06:53;5.07;67.48
72126;SHT31;59999;51.676;22.650;2023-05-10T01:09:21;5.05;67.60
72126;SHT31;59999;51.676;22.650;2023-05-10T01:11:47;5.02;67.69
72126;SHT31;59999;51.676;22.650;2023-05-10T01:14:15;5.02;67.49
72126;SHT31;59999;51.676;22.650;2023-05-10T01:16:42;5.05;67.19
72126;SHT31;59999;51.676;22.650;2023-05-10T01:19:24;5.07;67.14
72126;SHT31;59999;51.676;22.650;2023-05-10T01:24:40;5.05;66.93
72126;SHT31;59999;51.676;22.650;2023-05-10T01:27:19;5.05;67.10
72126;SHT31;59999;51.676;22.650;2023-05-10T01:32:51;4.98;67.16
72126;SHT31;59999;51.676;22.650;2023-05-10T01:40:25;4.85;67.57
72126;SHT31;59999;51.676;22.650;2023-05-10T01:43:01;4.82;67.61
72126;SHT31;59999;51.676;22.650;2023-05-10T01:45:43;4.82;67.68
72126;SHT31;59999;51.676;22.650;2023-05-10T01:48:14;4.80;67.67
72126;SHT31;59999;51.676;22.650;2023-05-10T01:50:43;4.80;67.39
72126;SHT31;59999;51.676;22.650;2023-05-10T01:53:10;4.80;67.67
72126;SHT31;59999;51.676;22.650;2023-05-10T01:55:46;4.80;67.51
72126;SHT31;59999;51.676;22.650;2023-05-10T01:58:20;4.80;67.52
72126;SHT31;59999;51.676;22.650;2023-05-10T02:00:49;4.77;67.53
72126;SHT31;59999;51.676;22.650;2023-05-10T02:03:16;4.73;67.57
72126;SHT31;59999;51.676;22.650;2023-05-10T02:05:45;4.73;67.65
72126;SHT31;59999;51.676;22.650;2023-05-10T02:08:13;4.71;67.67
72126;SHT31;59999;51.676;22.650;2023-05-10T02:10:42;4.67;67.92
72126;SHT31;59999;51.676;22.650;2023-05-10T02:13:09;4.63;68.05
72126;SHT31;59999;51.676;22.650;2023-05-10T02:15:38;4.60;68.19
72126;SHT31;59999;51.676;22.650;2023-05-10T02:18:06;4.54;68.32
72126;SHT31;59999;51.676;22.650;2023-05-10T02:20:33;4.54;68.37
72126;SHT31;59999;51.676;22.650;2023-05-10T02:23:00;4.53;68.36
72126;SHT31;59999;51.676;22.650;2023-05-10T02:25:28;4.50;68.43
72126;SHT31;59999;51.676;22.650;2023-05-10T02:27:56;4.52;68.23
72126;SHT31;59999;51.676;22.650;2023-05-10T02:30:23;4.56;67.91
72126;SHT31;59999;51.676;22.650;2023-05-10T02:32:50;4.63;67.75
72126;SHT31;59999;51.676;22.650;2023-05-10T02:35:17;4.63;67.67
72126;SHT31;59999;51.676;22.650;2023-05-10T02:37:44;4.64;67.67
72126;SHT31;59999;51.676;22.650;2023-05-10T02:40:13;4.64;67.74
72126;SHT31;59999;51.676;22.650;2023-05-10T02:42:41;4.64;67.59
72126;SHT31;59999;51.676;22.650;2023-05-10T02:45:12;4.64;67.77
72126;SHT31;59999;51.676;22.650;2023-05-10T02:47:38;4.64;67.61
72126;SHT31;59999;51.676;22.650;2023-05-10T02:50:06;4.60;67.69
72126;SHT31;59999;51.676;22.650;2023-05-10T02:52:54;4.58;68.00
72126;SHT31;59999;51.676;22.650;2023-05-10T02:55:25;4.53;68.12
72126;SHT31;59999;51.676;22.650;2023-05-10T02:57:56;4.54;68.23
72126;SHT31;59999;51.676;22.650;2023-05-10T03:00:24;4.52;68.28
72126;SHT31;59999;51.676;22.650;2023-05-10T03:02:50;4.52;68.29
72126;SHT31;59999;51.676;22.650;2023-05-10T03:05:16;4.50;68.23
72126;SHT31;59999;51.676;22.650;2023-05-10T03:07:43;4.52;68.22
72126;SHT31;59999;51.676;22.650;2023-05-10T03:10:09;4.53;68.21
72126;SHT31;59999;51.676;22.650;2023-05-10T03:13:23;4.53;68.37
72126;SHT31;59999;51.676;22.650;2023-05-10T03:18:42;4.50;68.48
72126;SHT31;59999;51.676;22.650;2023-05-10T03:21:11;4.53;68.48
72126;SHT31;59999;51.676;22.650;2023-05-10T03:23:44;4.58;68.08
72126;SHT31;59999;51.676;22.650;2023-05-10T03:26:18;4.64;68.28
72126;SHT31;59999;51.676;22.650;2023-05-10T03:28:47;4.67;68.00
72126;SHT31;59999;51.676;22.650;2023-05-10T03:31:14;4.68;68.09
72126;SHT31;59999;51.676;22.650;2023-05-10T03:33:50;4.70;68.05
72126;SHT31;59999;51.676;22.650;2023-05-10T03:36:17;4.75;68.05
72126;SHT31;59999;51.676;22.650;2023-05-10T03:38:43;4.77;68.07
72126;SHT31;59999;51.676;22.650;2023-05-10T03:41:09;4.77;68.17
72126;SHT31;59999;51.676;22.650;2023-05-10T03:43:35;4.81;68.41
72126;SHT31;59999;51.676;22.650;2023-05-10T03:46:04;4.84;68.43
72126;SHT31;59999;51.676;22.650;2023-05-10T03:48:32;4.88;68.30
72126;SHT31;59999;51.676;22.650;2023-05-10T03:50:58;4.95;68.65
72126;SHT31;59999;51.676;22.650;2023-05-10T03:53:24;4.96;68.61
72126;SHT31;59999;51.676;22.650;2023-05-10T03:55:50;5.07;68.20
72126;SHT31;59999;51.676;22.650;2023-05-10T03:58:16;5.09;68.23
72126;SHT31;59999;51.676;22.650;2023-05-10T04:00:42;5.19;68.18
72126;SHT31;59999;51.676;22.650;2023-05-10T04:03:12;5.28;67.76
72126;SHT31;59999;51.676;22.650;2023-05-10T04:05:38;5.39;67.71
72126;SHT31;59999;51.676;22.650;2023-05-10T04:08:04;5.49;67.38
72126;SHT31;59999;51.676;22.650;2023-05-10T04:10:31;5.57;67.44
72126;SHT31;59999;51.676;22.650;2023-05-10T04:12:57;5.69;67.38
72126;SHT31;59999;51.676;22.650;2023-05-10T04:15:23;5.80;67.24
72126;SHT31;59999;51.676;22.650;2023-05-10T04:17:49;5.91;67.10
72126;SHT31;59999;51.676;22.650;2023-05-10T04:20:16;6.02;66.88
72126;SHT31;59999;51.676;22.650;2023-05-10T04:22:42;6.19;66.23
72126;SHT31;59999;51.676;22.650;2023-05-10T04:25:08;6.30;66.27
72126;SHT31;59999;51.676;22.650;2023-05-10T04:27:34;6.43;66.17
72126;SHT31;59999;51.676;22.650;2023-05-10T04:30:01;6.57;65.66
72126;SHT31;59999;51.676;22.650;2023-05-10T04:32:27;6.72;65.30
72126;SHT31;59999;51.676;22.650;2023-05-10T04:34:53;6.91;65.18
72126;SHT31;59999;51.676;22.650;2023-05-10T04:37:19;7.07;64.97
72126;SHT31;59999;51.676;22.650;2023-05-10T04:39:47;7.22;64.29
72126;SHT31;59999;51.676;22.650;2023-05-10T04:42:13;7.42;64.27
72126;SHT31;59999;51.676;22.650;2023-05-10T04:44:41;7.61;63.76
72126;SHT31;59999;51.676;22.650;2023-05-10T04:47:06;7.79;63.59
72126;SHT31;59999;51.676;22.650;2023-05-10T04:49:33;7.97;63.22
72126;SHT31;59999;51.676;22.650;2023-05-10T04:51:58;8.17;62.66
72126;SHT31;59999;51.676;22.650;2023-05-10T04:54:24;8.35;62.30
72126;SHT31;59999;51.676;22.650;2023-05-10T04:56:50;8.49;61.96
72126;SHT31;59999;51.676;22.650;2023-05-10T04:59:17;8.71;61.63
72126;SHT31;59999;51.676;22.650;2023-05-10T05:01:43;8.86;60.07
72126;SHT31;59999;51.676;22.650;2023-05-10T05:04:09;9.03;59.88
72126;SHT31;59999;51.676;22.650;2023-05-10T05:06:34;9.17;59.30
72126;SHT31;59999;51.676;22.650;2023-05-10T05:09:00;9.34;60.48
72126;SHT31;59999;51.676;22.650;2023-05-10T05:11:26;9.50;59.19
72126;SHT31;59999;51.676;22.650;2023-05-10T05:13:53;9.63;58.28
72126;SHT31;59999;51.676;22.650;2023-05-10T05:16:19;9.78;58.20
72126;SHT31;59999;51.676;22.650;2023-05-10T05:18:45;9.89;57.00
72126;SHT31;59999;51.676;22.650;2023-05-10T05:21:15;9.99;56.31
72126;SHT31;59999;51.676;22.650;2023-05-10T05:23:42;10.10;56.48
72126;SHT31;59999;51.676;22.650;2023-05-10T05:26:08;10.23;55.86
72126;SHT31;59999;51.676;22.650;2023-05-10T05:28:34;10.33;55.88
72126;SHT31;59999;51.676;22.650;2023-05-10T05:31:03;10.44;55.10
72126;SHT31;59999;51.676;22.650;2023-05-10T05:33:30;10.56;55.18
72126;SHT31;59999;51.676;22.650;2023-05-10T05:35:56;10.68;56.62
72126;SHT31;59999;51.676;22.650;2023-05-10T05:38:22;10.79;56.99
72126;SHT31;59999;51.676;22.650;2023-05-10T05:40:49;10.94;55.64
72126;SHT31;59999;51.676;22.650;2023-05-10T05:43:15;11.06;57.00
72126;SHT31;59999;51.676;22.650;2023-05-10T05:45:41;11.18;55.28
72126;SHT31;59999;51.676;22.650;2023-05-10T05:48:07;11.30;54.99
72126;SHT31;59999;51.676;22.650;2023-05-10T05:50:32;11.43;54.23
72126;SHT31;59999;51.676;22.650;2023-05-10T05:52:59;11.54;54.77
72126;SHT31;59999;51.676;22.650;2023-05-10T05:55:24;11.70;55.08
72126;SHT31;59999;51.676;22.650;2023-05-10T05:57:51;11.84;55.75
72126;SHT31;59999;51.676;22.650;2023-05-10T06:00:17;11.94;54.12
72126;SHT31;59999;51.676;22.650;2023-05-10T06:02:43;12.08;53.80
72126;SHT31;59999;51.676;22.650;2023-05-10T06:05:09;12.18;53.76
72126;SHT31;59999;51.676;22.650;2023-05-10T06:07:35;12.32;53.43
72126;SHT31;59999;51.676;22.650;2023-05-10T06:10:01;12.45;52.87
72126;SHT31;59999;51.676;22.650;2023-05-10T06:12:28;12.60;53.88
72126;SHT31;59999;51.676;22.650;2023-05-10T06:14:55;12.69;51.12
72126;SHT31;59999;51.676;22.650;2023-05-10T06:17:21;12.77;50.04
72126;SHT31;59999;51.676;22.650;2023-05-10T06:19:47;12.84;50.31
72126;SHT31;59999;51.676;22.650;2023-05-10T06:22:13;12.96;51.12
72126;SHT31;59999;51.676;22.650;2023-05-10T06:24:39;13.04;52.28
72126;SHT31;59999;51.676;22.650;2023-05-10T06:27:05;13.14;50.75
72126;SHT31;59999;51.676;22.650;2023-05-10T06:29:32;13.20;49.16
72126;SHT31;59999;51.676;22.650;2023-05-10T06:31:58;13.32;51.39
72126;SHT31;59999;51.676;22.650;2023-05-10T06:34:24;13.42;51.03
72126;SHT31;59999;51.676;22.650;2023-05-10T06:36:50;13.49;50.13
72126;SHT31;59999;51.676;22.650;2023-05-10T06:39:17;13.55;50.13
72126;SHT31;59999;51.676;22.650;2023-05-10T06:41:43;13.66;50.88
72126;SHT31;59999;51.676;22.650;2023-05-10T06:44:09;13.73;49.52
72126;SHT31;59999;51.676;22.650;2023-05-10T06:46:35;13.82;49.93
72126;SHT31;59999;51.676;22.650;2023-05-10T06:49:01;13.90;50.28
72126;SHT31;59999;51.676;22.650;2023-05-10T06:51:27;13.99;50.25
72126;SHT31;59999;51.676;22.650;2023-05-10T06:53:53;14.06;47.52
72126;SHT31;59999;51.676;22.650;2023-05-10T06:56:19;14.13;48.64
72126;SHT31;59999;51.676;22.650;2023-05-10T06:58:47;14.23;49.57
72126;SHT31;59999;51.676;22.650;2023-05-10T07:01:13;14.35;46.36
72126;SHT31;59999;51.676;22.650;2023-05-10T07:03:39;14.40;43.39
72126;SHT31;59999;51.676;22.650;2023-05-10T07:06:06;14.44;45.13
72126;SHT31;59999;51.676;22.650;2023-05-10T07:08:33;14.54;43.59
72126;SHT31;59999;51.676;22.650;2023-05-10T07:11:04;14.60;43.98
72126;SHT31;59999;51.676;22.650;2023-05-10T07:13:33;14.65;44.06
72126;SHT31;59999;51.676;22.650;2023-05-10T07:16:00;14.69;42.01
72126;SHT31;59999;51.676;22.650;2023-05-10T07:18:26;14.79;43.98
72126;SHT31;59999;51.676;22.650;2023-05-10T07:20:52;14.91;43.35
72126;SHT31;59999;51.676;22.650;2023-05-10T07:23:18;14.98;43.11
72126;SHT31;59999;51.676;22.650;2023-05-10T07:25:46;15.00;40.32
72126;SHT31;59999;51.676;22.650;2023-05-10T07:28:13;14.98;40.16
72126;SHT31;59999;51.676;22.650;2023-05-10T07:30:39;14.96;37.10
72126;SHT31;59999;51.676;22.650;2023-05-10T07:33:05;14.99;38.94
72126;SHT31;59999;51.676;22.650;2023-05-10T07:35:31;14.96;36.54
72126;SHT31;59999;51.676;22.650;2023-05-10T07:37:57;14.99;35.98
72126;SHT31;59999;51.676;22.650;2023-05-10T07:40:23;14.99;36.07
72126;SHT31;59999;51.676;22.650;2023-05-10T07:42:49;15.00;36.03
72126;SHT31;59999;51.676;22.650;2023-05-10T07:45:15;15.00;35.65
72126;SHT31;59999;51.676;22.650;2023-05-10T07:47:40;14.99;35.81
72126;SHT31;59999;51.676;22.650;2023-05-10T07:50:07;14.98;35.50
72126;SHT31;59999;51.676;22.650;2023-05-10T07:52:33;15.03;36.51
72126;SHT31;59999;51.676;22.650;2023-05-10T07:54:59;15.09;36.30
72126;SHT31;59999;51.676;22.650;2023-05-10T07:57:25;15.16;37.25
72126;SHT31;59999;51.676;22.650;2023-05-10T07:59:51;15.27;38.30
72126;SHT31;59999;51.676;22.650;2023-05-10T08:02:17;15.34;36.94
72126;SHT31;59999;51.676;22.650;2023-05-10T08:04:43;15.46;38.09
72126;SHT31;59999;51.676;22.650;2023-05-10T08:07:09;15.47;34.98
72126;SHT31;59999;51.676;22.650;2023-05-10T08:09:35;15.49;34.88
72126;SHT31;59999;51.676;22.650;2023-05-10T08:12:01;15.51;35.65
72126;SHT31;59999;51.676;22.650;2023-05-10T08:14:29;15.57;36.48
72126;SHT31;59999;51.676;22.650;2023-05-10T08:16:55;15.61;35.85
72126;SHT31;59999;51.676;22.650;2023-05-10T08:19:22;15.64;35.11
72126;SHT31;59999;51.676;22.650;2023-05-10T08:21:49;15.61;35.24
72126;SHT31;59999;51.676;22.650;2023-05-10T08:24:15;15.61;34.30
72126;SHT31;59999;51.676;22.650;2023-05-10T08:26:41;15.50;34.28
72126;SHT31;59999;51.676;22.650;2023-05-10T08:29:07;15.47;34.73
72126;SHT31;59999;51.676;22.650;2023-05-10T08:31:33;15.54;37.75
72126;SHT31;59999;51.676;22.650;2023-05-10T08:33:59;15.54;33.48
72126;SHT31;59999;51.676;22.650;2023-05-10T08:36:25;15.60;34.10
72126;SHT31;59999;51.676;22.650;2023-05-10T08:38:53;15.64;33.70
72126;SHT31;59999;51.676;22.650;2023-05-10T08:41:20;15.65;34.01
72126;SHT31;59999;51.676;22.650;2023-05-10T08:43:47;15.64;35.33
72126;SHT31;59999;51.676;22.650;2023-05-10T08:46:17;15.65;36.62
72126;SHT31;59999;51.676;22.650;2023-05-10T08:48:48;15.60;34.30
72126;SHT31;59999;51.676;22.650;2023-05-10T08:51:17;15.55;36.23
72126;SHT31;59999;51.676;22.650;2023-05-10T08:53:45;15.65;36.38
72126;SHT31;59999;51.676;22.650;2023-05-10T08:56:11;15.67;33.25
72126;SHT31;59999;51.676;22.650;2023-05-10T08:58:37;15.71;34.21
72126;SHT31;59999;51.676;22.650;2023-05-10T09:01:04;15.75;32.60
72126;SHT31;59999;51.676;22.650;2023-05-10T09:03:31;15.68;35.34
72126;SHT31;59999;51.676;22.650;2023-05-10T09:05:58;15.62;34.89
72126;SHT31;59999;51.676;22.650;2023-05-10T09:08:24;15.64;36.76
72126;SHT31;59999;51.676;22.650;2023-05-10T09:10:51;15.54;36.12
72126;SHT31;59999;51.676;22.650;2023-05-10T09:13:18;15.53;35.34
72126;SHT31;59999;51.676;22.650;2023-05-10T09:15:45;15.64;36.51
72126;SHT31;59999;51.676;22.650;2023-05-10T09:18:12;15.72;33.88
72126;SHT31;59999;51.676;22.650;2023-05-10T09:20:38;15.75;34.91
72126;SHT31;59999;51.676;22.650;2023-05-10T09:23:04;15.81;33.72
72126;SHT31;59999;51.676;22.650;2023-05-10T09:25:30;15.85;35.06
72126;SHT31;59999;51.676;22.650;2023-05-10T09:27:59;15.85;35.90
72126;SHT31;59999;51.676;22.650;2023-05-10T09:30:28;15.81;38.19
72126;SHT31;59999;51.676;22.650;2023-05-10T09:32:55;15.81;36.08
72126;SHT31;59999;51.676;22.650;2023-05-10T09:35:23;15.88;35.27
72126;SHT31;59999;51.676;22.650;2023-05-10T09:37:51;15.92;36.30
72126;SHT31;59999;51.676;22.650;2023-05-10T09:40:19;16.05;38.68
72126;SHT31;59999;51.676;22.650;2023-05-10T09:43:07;16.05;37.70
72126;SHT31;59999;51.676;22.650;2023-05-10T09:45:34;16.01;35.21
72126;SHT31;59999;51.676;22.650;2023-05-10T09:48:02;16.01;36.36
72126;SHT31;59999;51.676;22.650;2023-05-10T09:50:29;15.95;36.95
72126;SHT31;59999;51.676;22.650;2023-05-10T09:52:57;15.98;40.53
72126;SHT31;59999;51.676;22.650;2023-05-10T09:55:26;16.01;38.56
72126;SHT31;59999;51.676;22.650;2023-05-10T09:58:03;16.05;34.34
72126;SHT31;59999;51.676;22.650;2023-05-10T10:00:35;16.13;34.68
72126;SHT31;59999;51.676;22.650;2023-05-10T10:03:02;16.18;32.43
72126;SHT31;59999;51.676;22.650;2023-05-10T10:05:33;16.19;33.93
72126;SHT31;59999;51.676;22.650;2023-05-10T10:08:02;16.13;35.86
72126;SHT31;59999;51.676;22.650;2023-05-10T10:10:28;16.18;35.21
72126;SHT31;59999;51.676;22.650;2023-05-10T10:12:55;16.26;35.39
72126;SHT31;59999;51.676;22.650;2023-05-10T10:15:22;16.46;36.14
72126;SHT31;59999;51.676;22.650;2023-05-10T10:17:49;16.49;35.97
72126;SHT31;59999;51.676;22.650;2023-05-10T10:20:16;16.61;36.41
72126;SHT31;59999;51.676;22.650;2023-05-10T10:22:42;16.73;34.70
72126;SHT31;59999;51.676;22.650;2023-05-10T10:25:11;16.70;33.97
72126;SHT31;59999;51.676;22.650;2023-05-10T10:30:43;16.50;34.05
72126;SHT31;59999;51.676;22.650;2023-05-10T10:36:03;16.64;33.35
72126;SHT31;59999;51.676;22.650;2023-05-10T10:38:57;16.84;32.26
72126;SHT31;59999;51.676;22.650;2023-05-10T10:41:36;17.04;35.88
72126;SHT31;59999;51.676;22.650;2023-05-10T10:52:34;17.01;34.25
72126;SHT31;59999;51.676;22.650;2023-05-10T10:57:27;17.07;32.17
72126;SHT31;59999;51.676;22.650;2023-05-10T11:00:18;17.18;33.24
72126;SHT31;59999;51.676;22.650;2023-05-10T11:02:46;17.28;33.45
72126;SHT31;59999;51.676;22.650;2023-05-10T11:08:16;17.42;32.63
72126;SHT31;59999;51.676;22.650;2023-05-10T11:13:29;17.36;32.83
72126;SHT31;59999;51.676;22.650;2023-05-10T11:15:56;17.45;33.54
72126;SHT31;59999;51.676;22.650;2023-05-10T11:18:27;17.42;35.34
72126;SHT31;59999;51.676;22.650;2023-05-10T11:20:59;17.45;33.47
72126;SHT31;59999;51.676;22.650;2023-05-10T11:23:33;17.24;33.29
72126;SHT31;59999;51.676;22.650;2023-05-10T11:26:13;17.24;32.09
72126;SHT31;59999;51.676;22.650;2023-05-10T11:28:47;17.03;33.34
72126;SHT31;59999;51.676;22.650;2023-05-10T11:31:15;16.95;34.61
72126;SHT31;59999;51.676;22.650;2023-05-10T11:33:49;17.11;33.16
72126;SHT31;59999;51.676;22.650;2023-05-10T11:36:21;17.32;32.15
72126;SHT31;59999;51.676;22.650;2023-05-10T11:38:47;17.46;32.56
72126;SHT31;59999;51.676;22.650;2023-05-10T11:41:16;17.50;33.72
72126;SHT31;59999;51.676;22.650;2023-05-10T11:43:42;17.62;32.67
72126;SHT31;59999;51.676;22.650;2023-05-10T11:46:12;17.80;30.63
72126;SHT31;59999;51.676;22.650;2023-05-10T11:48:39;17.90;32.55
72126;SHT31;59999;51.676;22.650;2023-05-10T11:51:09;17.89;32.51
72126;SHT31;59999;51.676;22.650;2023-05-10T11:53:36;17.90;32.15
72126;SHT31;59999;51.676;22.650;2023-05-10T11:56:09;17.80;30.29
72126;SHT31;59999;51.676;22.650;2023-05-10T11:58:37;17.67;33.05
72126;SHT31;59999;51.676;22.650;2023-05-10T12:01:04;17.49;31.24
72126;SHT31;59999;51.676;22.650;2023-05-10T12:03:31;17.31;31.76
72126;SHT31;59999;51.676;22.650;2023-05-10T12:05:58;17.12;33.01
72126;SHT31;59999;51.676;22.650;2023-05-10T12:08:26;16.67;32.59
72126;SHT31;59999;51.676;22.650;2023-05-10T12:10:54;16.42;35.13
72126;SHT31;59999;51.676;22.650;2023-05-10T12:13:29;16.38;33.59
72126;SHT31;59999;51.676;22.650;2023-05-10T12:15:58;16.60;34.36
72126;SHT31;59999;51.676;22.650;2023-05-10T12:18:24;16.84;33.52
72126;SHT31;59999;51.676;22.650;2023-05-10T12:20:54;17.05;33.72
72126;SHT31;59999;51.676;22.650;2023-05-10T12:23:20;17.28;34.20
72126;SHT31;59999;51.676;22.650;2023-05-10T12:25:46;17.38;32.35
72126;SHT31;59999;51.676;22.650;2023-05-10T12:28:12;17.39;31.17
72126;SHT31;59999;51.676;22.650;2023-05-10T12:30:38;17.31;32.04
72126;SHT31;59999;51.676;22.650;2023-05-10T12:33:12;17.45;31.69
72126;SHT31;59999;51.676;22.650;2023-05-10T12:35:49;17.62;31.44
72126;SHT31;59999;51.676;22.650;2023-05-10T12:40:51;17.90;34.23
72126;SHT31;59999;51.676;22.650;2023-05-10T12:43:16;18.00;32.57
72126;SHT31;59999;51.676;22.650;2023-05-10T12:45:42;17.93;30.99
72126;SHT31;59999;51.676;22.650;2023-05-10T12:48:13;17.90;30.28
72126;SHT31;59999;51.676;22.650;2023-05-10T12:50:39;17.87;34.62
72126;SHT31;59999;51.676;22.650;2023-05-10T12:53:05;17.87;32.24
72126;SHT31;59999;51.676;22.650;2023-05-10T12:55:31;17.80;33.47
72126;SHT31;59999;51.676;22.650;2023-05-10T12:57:57;17.59;31.29
72126;SHT31;59999;51.676;22.650;2023-05-10T13:00:23;17.34;33.67
72126;SHT31;59999;51.676;22.650;2023-05-10T13:02:49;17.29;35.69
72126;SHT31;59999;51.676;22.650;2023-05-10T13:05:15;17.34;33.82
72126;SHT31;59999;51.676;22.650;2023-05-10T13:07:41;17.47;34.09
72126;SHT31;59999;51.676;22.650;2023-05-10T13:10:07;17.61;32.30
72126;SHT31;59999;51.676;22.650;2023-05-10T13:12:33;17.62;31.45
72126;SHT31;59999;51.676;22.650;2023-05-10T13:14:59;17.65;32.12
72126;SHT31;59999;51.676;22.650;2023-05-10T13:17:25;17.62;32.29
72126;SHT31;59999;51.676;22.650;2023-05-10T13:19:51;17.73;33.27
72126;SHT31;59999;51.676;22.650;2023-05-10T13:22:17;17.66;29.99
72126;SHT31;59999;51.676;22.650;2023-05-10T13:24:43;17.72;31.46
72126;SHT31;59999;51.676;22.650;2023-05-10T13:27:09;17.70;31.00
72126;SHT31;59999;51.676;22.650;2023-05-10T13:29:35;17.72;32.55
72126;SHT31;59999;51.676;22.650;2023-05-10T13:32:01;17.74;33.55
72126;SHT31;59999;51.676;22.650;2023-05-10T13:34:27;17.73;34.15
72126;SHT31;59999;51.676;22.650;2023-05-10T13:36:53;17.84;33.47
72126;SHT31;59999;51.676;22.650;2023-05-10T13:39:22;17.86;33.06
72126;SHT31;59999;51.676;22.650;2023-05-10T13:41:47;17.80;30.83
72126;SHT31;59999;51.676;22.650;2023-05-10T13:44:14;17.79;31.44
72126;SHT31;59999;51.676;22.650;2023-05-10T13:46:41;17.77;31.72
72126;SHT31;59999;51.676;22.650;2023-05-10T13:49:11;17.80;32.81
72126;SHT31;59999;51.676;22.650;2023-05-10T13:51:36;17.72;34.50
72126;SHT31;59999;51.676;22.650;2023-05-10T13:54:03;17.69;31.46
72126;SHT31;59999;51.676;22.650;2023-05-10T13:56:29;17.84;33.42
72126;SHT31;59999;51.676;22.650;2023-05-10T13:58:56;18.17;32.19
72126;SHT31;59999;51.676;22.650;2023-05-10T14:01:24;18.52;30.87
72126;SHT31;59999;51.676;22.650;2023-05-10T14:03:50;19.06;28.43
72126;SHT31;59999;51.676;22.650;2023-05-10T14:06:15;19.65;29.41
72126;SHT31;59999;51.676;22.650;2023-05-10T14:08:41;19.96;28.43
72126;SHT31;59999;51.676;22.650;2023-05-10T14:11:07;20.22;28.74
72126;SHT31;59999;51.676;22.650;2023-05-10T14:13:35;20.58;27.45
72126;SHT31;59999;51.676;22.650;2023-05-10T14:16:00;20.90;28.01
72126;SHT31;59999;51.676;22.650;2023-05-10T14:18:27;21.19;26.72
72126;SHT31;59999;51.676;22.650;2023-05-10T14:20:53;21.26;28.11
72126;SHT31;59999;51.676;22.650;2023-05-10T14:23:21;21.26;27.00
72126;SHT31;59999;51.676;22.650;2023-05-10T14:25:50;21.26;26.85
72126;SHT31;59999;51.676;22.650;2023-05-10T14:28:16;21.26;27.29
72126;SHT31;59999;51.676;22.650;2023-05-10T14:30:44;20.94;27.65
72126;SHT31;59999;51.676;22.650;2023-05-10T14:33:10;20.77;26.99
72126;SHT31;59999;51.676;22.650;2023-05-10T14:35:36;20.80;26.85
72126;SHT31;59999;51.676;22.650;2023-05-10T14:38:03;20.96;26.42
72126;SHT31;59999;51.676;22.650;2023-05-10T14:40:29;21.35;24.81
72126;SHT31;59999;51.676;22.650;2023-05-10T14:42:56;21.83;24.46
72126;SHT31;59999;51.676;22.650;2023-05-10T14:45:22;22.05;25.38
72126;SHT31;59999;51.676;22.650;2023-05-10T14:47:49;22.18;25.10
72126;SHT31;59999;51.676;22.650;2023-05-10T14:50:15;22.18;25.24
72126;SHT31;59999;51.676;22.650;2023-05-10T14:52:42;22.18;25.92
72126;SHT31;59999;51.676;22.650;2023-05-10T14:55:08;22.12;24.97
72126;SHT31;59999;51.676;22.650;2023-05-10T14:57:34;21.43;24.44
72126;SHT31;59999;51.676;22.650;2023-05-10T15:00:00;21.32;26.00
72126;SHT31;59999;51.676;22.650;2023-05-10T15:02:26;21.54;25.26
72126;SHT31;59999;51.676;22.650;2023-05-10T15:04:52;21.56;24.23
72126;SHT31;59999;51.676;22.650;2023-05-10T15:07:18;22.00;23.90
72126;SHT31;59999;51.676;22.650;2023-05-10T15:09:44;22.28;24.08
72126;SHT31;59999;51.676;22.650;2023-05-10T15:12:29;22.18;23.37
72126;SHT31;59999;51.676;22.650;2023-05-10T15:14:55;22.25;23.69
72126;SHT31;59999;51.676;22.650;2023-05-10T15:17:21;22.60;25.21
72126;SHT31;59999;51.676;22.650;2023-05-10T15:19:47;23.13;23.93
72126;SHT31;59999;51.676;22.650;2023-05-10T15:22:15;23.41;23.21
72126;SHT31;59999;51.676;22.650;2023-05-10T15:24:40;23.59;22.16
72126;SHT31;59999;51.676;22.650;2023-05-10T15:27:07;24.01;22.05
72126;SHT31;59999;51.676;22.650;2023-05-10T15:29:32;24.41;22.47
72126;SHT31;59999;51.676;22.650;2023-05-10T15:32:01;24.59;20.97
72126;SHT31;59999;51.676;22.650;2023-05-10T15:34:27;24.61;20.44
72126;SHT31;59999;51.676;22.650;2023-05-10T15:36:53;24.47;21.36
72126;SHT31;59999;51.676;22.650;2023-05-10T15:39:19;24.19;22.69
72126;SHT31;59999;51.676;22.650;2023-05-10T15:41:45;24.67;21.68
72126;SHT31;59999;51.676;22.650;2023-05-10T15:44:12;24.34;21.06
72126;SHT31;59999;51.676;22.650;2023-05-10T15:46:38;24.46;22.40
72126;SHT31;59999;51.676;22.650;2023-05-10T15:49:04;24.63;21.74
72126;SHT31;59999;51.676;22.650;2023-05-10T15:51:31;24.61;22.48
72126;SHT31;59999;51.676;22.650;2023-05-10T15:53:58;24.74;21.61
72126;SHT31;59999;51.676;22.650;2023-05-10T15:56:24;24.74;21.51
72126;SHT31;59999;51.676;22.650;2023-05-10T15:58:51;25.05;21.40
72126;SHT31;59999;51.676;22.650;2023-05-10T16:01:17;25.30;20.98